createdAt,value
2022-08-25T00:04:23.978Z,16.60
2022-08-25T00:09:27.736Z,16.50
2022-08-25T00:14:33.560Z,16.50
2022-08-25T00:19:37.900Z,16.40
2022-08-25T00:24:39.694Z,16.50
2022-08-25T00:29:41.482Z,16.60
2022-08-25T00:34:43.327Z,16.60
2022-08-25T00:39:45.788Z,16.50
2022-08-25T00:44:48.806Z,16.60
2022-08-25T00:49:55.327Z,16.60
2022-08-25T00:55:07.945Z,16.60
2022-08-25T01:00:21.894Z,16.60
2022-08-25T01:05:25.507Z,16.60
2022-08-25T01:10:28.717Z,16.50
2022-08-25T01:15:31.267Z,16.40
2022-08-25T01:20:34.678Z,16.50
2022-08-25T01:25:56.648Z,16.40
2022-08-25T01:30:58.550Z,16.50
2022-08-25T01:36:00.411Z,16.50
2022-08-25T01:41:02.205Z,16.50
2022-08-25T01:46:04.231Z,16.50
2022-08-25T01:51:06.251Z,16.50
2022-08-25T01:56:13.938Z,16.50
2022-08-25T02:01:20.212Z,16.50
2022-08-25T02:06:34.899Z,16.50
2022-08-25T02:11:40.525Z,16.50
2022-08-25T02:16:46.432Z,16.50
2022-08-25T02:21:48.668Z,16.60
2022-08-25T02:26:50.853Z,16.60
2022-08-25T02:31:52.874Z,16.70
2022-08-25T02:36:54.662Z,16.90
2022-08-25T02:41:56.422Z,17.00
2022-08-25T02:46:58.597Z,17.20
2022-08-25T02:52:00.539Z,17.20
2022-08-25T02:57:03.495Z,17.30
2022-08-25T03:02:06.222Z,17.20
2022-08-25T03:07:07.996Z,17.00
2022-08-25T03:12:10.980Z,17.00
2022-08-25T03:17:12.890Z,16.80
2022-08-25T03:22:14.792Z,16.80
2022-08-25T03:27:16.550Z,16.80
2022-08-25T03:32:18.403Z,16.70
2022-08-25T03:37:20.175Z,16.60
2022-08-25T03:42:22.131Z,16.60
2022-08-25T03:47:26.327Z,16.60
2022-08-25T03:52:28.102Z,16.60
2022-08-25T03:57:29.882Z,16.60
2022-08-25T04:02:33.693Z,16.50
2022-08-25T04:07:35.730Z,16.60
2022-08-25T04:12:38.129Z,16.50
2022-08-25T04:17:40.541Z,16.50
2022-08-25T04:22:44.935Z,16.50
2022-08-25T04:27:47.070Z,16.60
2022-08-25T04:32:49.765Z,16.60
2022-08-25T04:37:51.707Z,16.50
2022-08-25T04:42:53.467Z,16.60
2022-08-25T04:47:58.012Z,16.60
2022-08-25T04:52:59.871Z,16.60
2022-08-25T04:58:01.655Z,16.70
2022-08-25T05:03:05.224Z,16.70
2022-08-25T05:08:07.419Z,16.80
2022-08-25T05:13:09.317Z,16.80
2022-08-25T05:18:11.168Z,16.90
2022-08-25T05:23:13.107Z,17.00
2022-08-25T05:28:15.279Z,17.10
2022-08-25T05:33:18.539Z,17.20
2022-08-25T05:38:20.396Z,17.20
2022-08-25T05:43:22.195Z,17.30
2022-08-25T05:48:25.299Z,17.40
2022-08-25T05:53:29.735Z,17.50
2022-08-25T05:58:36.551Z,17.60
2022-08-25T06:03:38.385Z,17.70
2022-08-25T06:08:40.864Z,18.00
2022-08-25T06:13:42.842Z,18.20
2022-08-25T06:18:44.756Z,18.40
2022-08-25T06:23:46.570Z,18.80
2022-08-25T06:28:50.711Z,19.10
2022-08-25T06:33:52.916Z,19.30
2022-08-25T06:38:54.705Z,19.50
2022-08-25T06:44:04.755Z,19.70
2022-08-25T06:49:08.099Z,20.00
2022-08-25T06:54:10.698Z,20.40
2022-08-25T06:59:12.810Z,20.90
2022-08-25T07:04:14.704Z,21.40
2022-08-25T07:09:17.438Z,21.70
2022-08-25T07:14:20.089Z,22.00
2022-08-25T07:19:22.013Z,22.30
2022-08-25T07:24:24.146Z,22.50
2022-08-25T07:35:09.038Z,23.20
2022-08-25T07:40:14.293Z,23.40
2022-08-25T07:45:17.388Z,23.60
2022-08-25T07:50:23.192Z,23.70
2022-08-25T07:55:27.214Z,23.80
2022-08-25T08:00:32.083Z,23.90
2022-08-25T08:05:34.652Z,24.10
2022-08-25T08:11:03.306Z,24.20
2022-08-25T08:16:02.000Z,24.40
2022-08-25T08:21:03.966Z,24.40
2022-08-25T08:26:05.984Z,24.30
2022-08-25T08:31:10.721Z,24.50
2022-08-25T08:36:13.138Z,24.60
2022-08-25T08:42:09.416Z,24.90
2022-08-25T08:47:50.659Z,25.30
2022-08-25T08:52:56.315Z,25.50
2022-08-25T08:58:00.956Z,25.50
2022-08-25T09:03:06.216Z,25.50
2022-08-25T09:08:12.440Z,25.50
2022-08-25T09:13:29.600Z,25.60
2022-08-25T09:18:39.027Z,25.40
2022-08-25T09:24:11.976Z,25.20
2022-08-25T09:29:21.304Z,24.90
2022-08-25T09:34:28.519Z,24.80
2022-08-25T09:39:30.583Z,24.90
2022-08-25T09:44:44.329Z,25.10
2022-08-25T09:50:01.411Z,25.50
2022-08-25T09:55:06.400Z,25.60
2022-08-25T10:00:17.424Z,25.70
2022-08-25T10:05:26.511Z,25.80
2022-08-25T10:10:36.455Z,25.60
2022-08-25T10:15:38.745Z,25.50
2022-08-25T10:20:44.473Z,25.60
2022-08-25T10:26:00.392Z,25.50
2022-08-25T10:31:16.817Z,25.40
2022-08-25T10:36:23.411Z,25.50
2022-08-25T10:41:57.439Z,25.40
2022-08-25T10:47:30.045Z,25.50
2022-08-25T10:52:51.806Z,25.60
2022-08-25T10:58:10.000Z,25.70
2022-08-25T11:03:25.602Z,25.80
2022-08-25T11:08:32.379Z,25.60
2022-08-25T11:13:53.136Z,25.70
2022-08-25T11:19:02.432Z,25.60
2022-08-25T11:24:27.548Z,25.50
2022-08-25T11:29:36.706Z,25.40
2022-08-25T11:34:43.454Z,25.40
2022-08-25T11:40:13.807Z,25.80
2022-08-25T11:45:42.512Z,26.10
2022-08-25T11:51:09.510Z,26.20
2022-08-25T11:56:33.081Z,26.30
2022-08-25T12:01:40.105Z,26.20
2022-08-25T12:07:00.945Z,26.10
2022-08-25T12:12:25.817Z,25.90
2022-08-25T12:17:38.327Z,25.80
2022-08-25T12:22:51.403Z,25.80
2022-08-25T12:28:11.376Z,25.90
2022-08-25T12:33:28.340Z,25.90
2022-08-25T12:38:49.579Z,25.70
2022-08-25T12:44:15.807Z,25.50
2022-08-25T12:49:34.229Z,25.40
2022-08-25T12:54:47.653Z,25.30
2022-08-25T12:59:53.927Z,25.40
2022-08-25T13:05:33.730Z,25.90
2022-08-25T13:10:50.776Z,26.50
2022-08-25T13:16:09.915Z,26.80
2022-08-25T13:21:17.684Z,27.00
2022-08-25T13:26:25.995Z,26.90
2022-08-25T13:31:29.834Z,26.80
2022-08-25T13:36:58.802Z,26.90
2022-08-25T13:42:04.863Z,26.80
2022-08-25T13:47:09.764Z,26.60
2022-08-25T13:52:29.301Z,26.40
2022-08-25T13:57:32.261Z,26.20
2022-08-25T14:02:44.091Z,26.10
2022-08-25T14:08:15.897Z,26.00
2022-08-25T14:13:30.976Z,25.80
2022-08-25T14:18:33.440Z,25.70
2022-08-25T14:23:36.954Z,25.60
2022-08-25T14:28:39.517Z,25.60
2022-08-25T14:34:02.401Z,25.50
2022-08-25T14:39:06.089Z,25.50
2022-08-25T14:44:11.263Z,25.40
2022-08-25T14:49:24.861Z,25.30
2022-08-25T14:54:28.004Z,25.30
2022-08-25T14:59:31.540Z,25.20
2022-08-25T15:09:42.122Z,25.10
2022-08-25T15:14:44.063Z,25.00
2022-08-25T15:19:47.328Z,24.90
2022-08-25T15:24:49.805Z,24.80
2022-08-25T15:29:51.665Z,24.80
2022-08-25T15:34:54.414Z,24.60
2022-08-25T15:39:56.474Z,24.50
2022-08-25T15:44:58.440Z,24.40
2022-08-25T15:50:16.823Z,24.30
2022-08-25T15:55:19.820Z,24.20
2022-08-25T16:00:22.235Z,24.10
2022-08-25T16:05:26.116Z,23.90
2022-08-25T16:10:32.634Z,23.80
2022-08-25T16:15:35.684Z,23.70
2022-08-25T16:20:37.492Z,23.70
2022-08-25T16:25:42.001Z,23.60
2022-08-25T16:30:52.518Z,23.70
2022-08-25T16:36:23.638Z,23.70
2022-08-25T16:41:33.894Z,23.80
2022-08-25T16:46:37.383Z,23.80
2022-08-25T16:51:40.425Z,23.90
2022-08-25T16:56:42.634Z,23.90
2022-08-25T17:01:45.050Z,23.90
2022-08-25T17:06:49.643Z,23.80
2022-08-25T17:11:56.817Z,23.90
2022-08-25T17:16:58.739Z,23.80
2022-08-25T17:22:00.655Z,23.80
2022-08-25T17:27:02.465Z,23.80
2022-08-25T17:32:05.064Z,23.90
2022-08-25T17:37:07.032Z,23.90
2022-08-25T17:42:09.075Z,23.80
2022-08-25T17:47:11.856Z,23.70
2022-08-25T17:52:14.885Z,23.70
2022-08-25T17:57:17.749Z,23.50
2022-08-25T18:02:19.543Z,23.50
2022-08-25T18:07:22.588Z,23.30
2022-08-25T18:12:27.385Z,23.10
2022-08-25T18:17:29.481Z,22.90
2022-08-25T18:22:31.991Z,22.70
2022-08-25T18:27:35.933Z,22.40
2022-08-25T18:32:38.003Z,22.20
2022-08-25T18:37:58.430Z,22.00
2022-08-25T18:43:03.966Z,21.90
2022-08-25T18:48:06.123Z,21.80
2022-08-25T18:53:09.405Z,21.80
2022-08-25T18:58:15.688Z,21.70
2022-08-25T19:03:21.704Z,21.60
2022-08-25T19:08:23.482Z,21.50
2022-08-25T19:13:25.677Z,21.40
2022-08-25T19:18:29.256Z,21.30
2022-08-25T19:23:32.651Z,21.20
2022-08-25T19:28:36.133Z,21.20
2022-08-25T19:33:44.937Z,21.10
2022-08-25T19:38:47.404Z,21.00
2022-08-25T19:43:56.425Z,20.80
2022-08-25T19:49:01.575Z,20.70
2022-08-25T19:54:09.159Z,20.50
2022-08-25T19:59:12.656Z,20.50
2022-08-25T20:04:14.491Z,20.40
2022-08-25T20:09:35.623Z,20.50
2022-08-25T20:14:40.227Z,20.40
2022-08-25T20:19:43.239Z,20.30
2022-08-25T20:24:56.157Z,20.20
2022-08-25T20:30:03.002Z,20.10
2022-08-25T20:35:08.954Z,20.00
2022-08-25T20:40:15.310Z,19.90
2022-08-25T20:45:21.724Z,19.80
2022-08-25T20:50:25.087Z,19.70
2022-08-25T20:55:28.830Z,19.60
2022-08-25T21:00:30.628Z,19.60
2022-08-25T21:05:34.037Z,19.50
2022-08-25T21:10:36.641Z,19.50
2022-08-25T21:15:40.719Z,19.50
2022-08-25T21:20:42.503Z,19.60
2022-08-25T21:25:44.340Z,19.60
2022-08-25T21:30:47.322Z,19.60
2022-08-25T21:35:49.304Z,19.60
2022-08-25T21:40:51.326Z,19.60
2022-08-25T21:45:53.548Z,19.50
2022-08-25T21:51:13.714Z,19.50
2022-08-25T21:56:19.154Z,19.60
2022-08-25T22:01:21.432Z,19.50
2022-08-25T22:06:24.700Z,19.40
2022-08-25T22:11:26.972Z,19.40
2022-08-25T22:16:29.569Z,19.40
2022-08-25T22:21:32.661Z,19.40
2022-08-25T22:26:35.854Z,19.30
2022-08-25T22:31:37.978Z,19.40
2022-08-25T22:36:40.016Z,19.40
2022-08-25T22:41:42.809Z,19.30
2022-08-25T22:46:47.719Z,19.20
2022-08-25T22:51:49.918Z,19.20
2022-08-25T22:56:53.301Z,19.10
2022-08-25T23:01:55.310Z,19.00
2022-08-25T23:06:57.113Z,18.90
2022-08-25T23:11:58.903Z,18.90
2022-08-25T23:17:00.683Z,18.80
2022-08-25T23:22:12.450Z,18.80
2022-08-25T23:27:18.716Z,18.70
2022-08-25T23:32:20.626Z,18.60
2022-08-25T23:37:22.439Z,18.60
2022-08-25T23:42:24.621Z,18.70
2022-08-25T23:47:26.655Z,18.50
2022-08-25T23:52:29.211Z,18.50
2022-08-25T23:57:31.255Z,18.50
